Time;durP1;ratioP1;P1;durP2;ratioP2;P2;SDS_P1;SDS_P2;PMS_P1;PMS_P2;Temp;Humidity;BMP_temperature;BMP_pressure;BME280_temperature;BME280_humidity;BME280_pressure;Samples;Min_cycle;Max_cycle;Signal;HPM_P1;HPM_P2
2021/12/23 00:02:22;;;;;;;31.70;17.20;;;;;;;-5.68;75.44;102270.66;104814;1283;71510;-83
2021/12/23 00:04:51;;;;;;;19.00;10.10;;;;;;;-5.77;75.22;102273.02;104568;1285;59845;-78
2021/12/23 00:07:20;;;;;;;27.00;12.20;;;;;;;-5.80;75.89;102276.86;104572;1288;59173;-76
2021/12/23 00:12:18;;;;;;;36.20;17.50;;;;;;;-5.84;76.11;102273.73;105400;1285;70977;-81
2021/12/23 00:14:50;;;;;;;28.00;12.80;;;;;;;-5.87;76.16;102274.35;105398;1283;71080;-81
2021/12/23 00:17:53;;;;;;;27.20;13.10;;;;;;;-5.87;76.22;102278.77;104780;1287;73577;-84
2021/12/23 00:25:34;;;;;;;40.00;16.90;;;;;;;-5.96;76.47;102278.27;104694;1285;74712;-80
2021/12/23 00:28:03;;;;;;;44.70;20.20;;;;;;;-6.02;77.21;102276.80;104877;1283;72519;-80
2021/12/23 00:30:32;;;;;;;44.30;20.50;;;;;;;-6.05;78.53;102279.63;104867;1284;68622;-82
2021/12/23 00:33:01;;;;;;;40.50;20.70;;;;;;;-6.05;78.35;102280.30;104711;1285;72419;-82
2021/12/23 00:35:30;;;;;;;43.10;18.80;;;;;;;-6.07;78.33;102275.34;104578;1286;59623;-83
2021/12/23 00:38:04;;;;;;;39.50;18.90;;;;;;;-6.11;78.47;102272.89;104879;1283;60524;-83
2021/12/23 00:40:33;;;;;;;40.30;20.80;;;;;;;-6.15;77.86;102270.77;104867;1286;72824;-81
2021/12/23 00:43:02;;;;;;;37.60;19.20;;;;;;;-6.19;78.68;102270.85;104853;1284;71230;-83
2021/12/23 00:45:31;;;;;;;37.50;19.20;;;;;;;-6.24;78.45;102268.38;104820;1283;68049;-83
2021/12/23 00:48:00;;;;;;;40.30;18.90;;;;;;;-6.26;78.86;102268.65;104743;1286;73006;-84
2021/12/23 00:50:29;;;;;;;48.30;22.50;;;;;;;-6.28;79.75;102270.81;104824;1282;59846;-84
2021/12/23 00:53:00;;;;;;;37.00;19.40;;;;;;;-6.31;80.58;102271.42;104677;1286;62382;-79
2021/12/23 00:55:29;;;;;;;40.80;19.90;;;;;;;-6.34;79.49;102271.54;104818;1287;73073;-79
2021/12/23 00:58:00;;;;;;;42.10;19.10;;;;;;;-6.33;78.50;102276.65;104674;1288;70042;-77
2021/12/23 01:00:29;;;;;;;41.70;19.70;;;;;;;-6.33;78.27;102281.05;104587;1286;69857;-81
2021/12/23 01:03:00;;;;;;;36.50;18.50;;;;;;;-6.30;78.95;102280.27;104702;1287;74759;-80
2021/12/23 01:05:29;;;;;;;35.80;17.40;;;;;;;-6.28;78.27;102279.14;104781;1283;60569;-81
2021/12/23 01:07:59;;;;;;;31.20;17.30;;;;;;;-6.29;77.38;102284.88;104327;1286;60263;-82
2021/12/23 01:10:28;;;;;;;32.60;16.90;;;;;;;-6.34;77.88;102289.02;104702;1287;74582;-84
2021/12/23 01:13:01;;;;;;;35.30;16.00;;;;;;;-6.38;78.39;102294.15;104687;1287;70915;-80
2021/12/23 01:18:20;;;;;;;;;;;;;;;-6.47;77.52;102291.41;104727;1287;72420;-81
2021/12/23 01:20:53;;;;;;;29.40;13.00;;;;;;;-6.53;77.51;102285.87;104680;1283;59651;-82
2021/12/23 01:23:24;;;;;;;28.10;14.50;;;;;;;-6.56;76.82;102282.23;104776;1287;59055;-82
2021/12/23 01:25:52;;;;;;;29.00;15.20;;;;;;;-6.62;77.47;102281.08;104788;1285;73812;-74
2021/12/23 01:28:22;;;;;;;31.10;14.30;;;;;;;-6.63;78.39;102281.04;104677;1285;72942;-78
2021/12/23 01:30:52;;;;;;;34.30;17.10;;;;;;;-6.60;77.50;102280.44;104702;1286;69212;-80
2021/12/23 01:33:21;;;;;;;32.40;15.50;;;;;;;-6.68;78.49;102280.61;104799;1283;73953;-79
2021/12/23 01:35:50;;;;;;;31.80;15.70;;;;;;;-6.69;78.22;102278.40;104790;1284;60096;-80
2021/12/23 01:38:19;;;;;;;32.20;14.90;;;;;;;-6.66;78.00;102276.57;104768;1286;59822;-79
2021/12/23 01:40:48;;;;;;;35.80;15.00;;;;;;;-6.64;77.44;102279.48;104686;1289;73659;-80
2021/12/23 01:43:17;;;;;;;29.20;15.10;;;;;;;-6.65;76.92;102279.48;104834;1283;71419;-81
2021/12/23 01:45:49;;;;;;;31.80;15.50;;;;;;;-6.68;76.62;102279.77;104790;1283;68187;-78
2021/12/23 01:48:19;;;;;;;36.50;15.60;;;;;;;-6.67;76.90;102282.32;104781;1285;73206;-83
2021/12/23 01:50:48;;;;;;;33.50;15.30;;;;;;;-6.63;76.69;102281.89;104799;1283;61928;-79
2021/12/23 01:53:18;;;;;;;33.30;16.60;;;;;;;-6.57;77.06;102285.75;104633;1288;60130;-81
2021/12/23 01:55:47;;;;;;;32.40;15.90;;;;;;;-6.55;78.10;102286.15;104883;1283;73781;-82
2021/12/23 01:58:18;;;;;;;34.20;17.20;;;;;;;-6.49;77.39;102289.50;104593;1286;71232;-80
2021/12/23 02:00:52;;;;;;;33.00;16.00;;;;;;;-6.47;77.52;102285.81;104685;1286;69964;-79
2021/12/23 02:03:21;;;;;;;35.40;17.10;;;;;;;-6.47;77.07;102282.95;104740;1286;73857;-84
2021/12/23 02:05:50;;;;;;;33.00;15.90;;;;;;;-6.46;76.66;102282.98;104537;1288;61349;-82
2021/12/23 02:08:34;;;;;;;32.00;15.30;;;;;;;-6.47;76.52;102281.77;104709;1286;62569;-83
2021/12/23 02:11:07;;;;;;;31.70;15.50;;;;;;;-6.45;76.75;102283.84;104670;1286;72307;-78
2021/12/23 02:13:37;;;;;;;;;;;;;;;-6.41;77.31;102285.95;105377;1288;69687;-83
2021/12/23 02:16:07;;;;;;;31.90;15.30;;;;;;;-6.40;77.87;102285.82;104551;1287;70644;-83
2021/12/23 02:18:36;;;;;;;35.70;16.80;;;;;;;-6.39;77.70;102286.51;104569;1286;74424;-82
2021/12/23 02:21:06;;;;;;;32.20;15.30;;;;;;;-6.42;78.60;102287.96;104673;1286;59785;-80
2021/12/23 02:23:36;;;;;;;32.90;14.70;;;;;;;-6.38;77.76;102289.41;104683;1286;59810;-82
2021/12/23 02:26:05;;;;;;;37.80;16.10;;;;;;;-6.38;77.41;102285.70;104631;1286;72856;-84
2021/12/23 02:28:34;;;;;;;31.00;14.00;;;;;;;-6.36;77.03;102290.63;104656;1286;70065;-83
2021/12/23 02:31:03;;;;;;;25.40;12.10;;;;;;;-6.34;76.89;102290.38;104605;1287;67029;-83
2021/12/23 02:33:34;;;;;;;32.50;15.90;;;;;;;-6.32;77.56;102295.48;104673;1286;73270;-84
2021/12/23 02:36:04;;;;;;;33.50;16.20;;;;;;;-6.31;77.45;102296.67;104538;1286;60974;-84
2021/12/23 02:38:33;;;;;;;28.80;13.70;;;;;;;-6.30;77.26;102296.87;104568;1285;62036;-82
2021/12/23 02:41:02;;;;;;;29.90;12.80;;;;;;;-6.28;76.22;102295.07;104542;1287;74932;-85
2021/12/23 02:43:31;;;;;;;25.20;12.70;;;;;;;-6.28;76.03;102296.77;104607;1286;72875;-82
2021/12/23 02:46:00;;;;;;;28.80;13.40;;;;;;;-6.28;75.86;102299.98;104602;1285;68287;-79
2021/12/23 02:48:38;;;;;;;21.10;9.80;;;;;;;-6.29;75.16;102301.48;104591;1285;72178;-80
2021/12/23 02:51:10;;;;;;;26.10;12.70;;;;;;;-6.32;74.81;102297.17;104598;1286;62169;-80
2021/12/23 02:53:41;;;;;;;26.90;11.80;;;;;;;-6.39;74.36;102301.61;104656;1286;59825;-80
2021/12/23 02:56:15;;;;;;;25.30;12.10;;;;;;;-6.34;75.13;102300.52;104668;1285;74293;-88
2021/12/23 02:58:46;;;;;;;29.50;13.60;;;;;;;-6.33;74.69;102300.55;104858;1286;71436;-83
2021/12/23 03:01:18;;;;;;;25.10;12.20;;;;;;;-6.38;74.33;102299.25;104744;1286;71004;-84
2021/12/23 03:03:47;;;;;;;28.50;13.00;;;;;;;-6.33;74.54;102300.55;104628;1288;73616;-80
2021/12/23 03:06:20;;;;;;;15.60;8.10;;;;;;;-6.33;74.03;102298.67;105510;1285;59607;-81
2021/12/23 03:08:56;;;;;;;;;;;;;;;-6.31;74.02;102297.70;105952;1286;59649;-82
2021/12/23 03:11:28;;;;;;;21.70;10.80;;;;;;;-6.39;73.81;102298.88;105794;1285;75539;-83
2021/12/23 03:13:58;;;;;;;27.50;12.50;;;;;;;-6.38;74.02;102299.42;104790;1286;72399;-87
2021/12/23 03:16:35;;;;;;;25.30;11.70;;;;;;;-6.43;73.55;102302.03;104614;1286;70209;-79
2021/12/23 03:19:04;;;;;;;23.40;10.60;;;;;;;-6.40;74.28;102299.54;104550;1287;74384;-81
2021/12/23 03:21:35;;;;;;;21.90;10.50;;;;;;;-6.38;74.19;102301.63;104582;1288;64807;-72
2021/12/23 03:24:05;;;;;;;21.40;11.60;;;;;;;-6.38;74.26;102304.34;104550;1287;60467;-73
2021/12/23 03:26:34;;;;;;;23.00;11.50;;;;;;;-6.41;74.22;102301.05;104551;1286;75142;-78
2021/12/23 03:29:04;;;;;;;17.90;10.60;;;;;;;-6.44;73.97;102299.81;104529;1288;71808;-79
2021/12/23 03:31:33;;;;;;;24.90;11.20;;;;;;;-6.48;73.51;102297.01;104466;1285;68408;-73
2021/12/23 03:34:02;;;;;;;24.00;11.00;;;;;;;-6.53;73.79;102300.09;104466;1288;74047;-72
2021/12/23 03:36:32;;;;;;;31.50;12.10;;;;;;;-6.56;74.19;102298.84;104490;1287;63847;-73
2021/12/23 03:39:02;;;;;;;27.60;11.80;;;;;;;-6.54;74.13;102297.37;104445;1287;60540;-72
2021/12/23 03:41:31;;;;;;;26.70;13.40;;;;;;;-6.60;74.20;102293.66;104580;1286;73537;-72
2021/12/23 03:44:00;;;;;;;29.80;12.90;;;;;;;-6.75;74.07;102295.50;104542;1289;70466;-73
2021/12/23 03:46:29;;;;;;;29.60;13.90;;;;;;;-6.83;74.29;102296.84;104605;1285;67979;-71
2021/12/23 03:48:58;;;;;;;28.40;12.30;;;;;;;-6.84;74.17;102299.35;104621;1285;72140;-73
2021/12/23 03:51:27;;;;;;;24.90;12.70;;;;;;;-6.94;74.34;102294.71;104665;1286;59839;-74
2021/12/23 03:53:56;;;;;;;24.70;11.10;;;;;;;-7.05;74.11;102296.64;104581;1288;61429;-73
2021/12/23 03:56:25;;;;;;;27.40;11.80;;;;;;;-7.14;73.67;102298.27;104699;1287;76136;-72
2021/12/23 03:58:55;;;;;;;24.80;12.70;;;;;;;-7.25;73.84;102299.52;104670;1287;71036;-72
2021/12/23 04:01:28;;;;;;;25.40;12.10;;;;;;;-7.34;74.26;102297.94;104573;1285;71524;-74
2021/12/23 04:03:58;;;;;;;24.60;12.00;;;;;;;-7.39;74.33;102299.83;104619;1285;72256;-74
2021/12/23 04:06:27;;;;;;;29.30;13.60;;;;;;;-7.41;75.33;102297.23;104600;1286;60166;-75
2021/12/23 04:08:56;;;;;;;29.60;14.30;;;;;;;-7.38;76.44;102297.32;104663;1286;59516;-75
2021/12/23 04:11:25;;;;;;;28.60;12.90;;;;;;;-7.33;76.30;102295.92;104644;1289;73821;-72
2021/12/23 04:13:55;;;;;;;35.90;15.40;;;;;;;-7.28;76.25;102296.05;104651;1287;69690;-73
2021/12/23 04:16:24;;;;;;;26.80;13.80;;;;;;;-7.25;76.22;102299.36;104620;1287;69866;-74
2021/12/23 04:18:54;;;;;;;31.80;16.30;;;;;;;-7.26;75.72;102298.14;104503;1286;72518;-74
2021/12/23 04:21:23;;;;;;;33.00;16.10;;;;;;;-7.28;75.54;102298.74;104614;1286;59051;-74
2021/12/23 04:23:52;;;;;;;28.40;14.90;;;;;;;-7.32;76.08;102300.52;104746;1285;61077;-76
2021/12/23 04:26:21;;;;;;;26.20;14.30;;;;;;;-7.37;76.16;102300.05;104612;1286;72946;-75
2021/12/23 04:28:51;;;;;;;28.00;14.50;;;;;;;-7.41;76.10;102301.63;104679;1287;70274;-76
2021/12/23 04:31:23;;;;;;;32.90;15.40;;;;;;;-7.46;76.54;102304.70;104644;1289;69898;-72
2021/12/23 04:33:54;;;;;;;36.50;15.50;;;;;;;-7.50;76.02;102305.29;104631;1288;72092;-77
2021/12/23 04:36:29;;;;;;;31.30;15.70;;;;;;;-7.54;75.89;102308.05;104800;1284;60072;-75
2021/12/23 04:39:01;;;;;;;35.40;16.90;;;;;;;-7.58;76.48;102309.64;105974;1285;59024;-76
2021/12/23 04:41:31;;;;;;;33.70;18.30;;;;;;;-7.59;76.71;102317.03;104718;1287;73705;-80
2021/12/23 04:44:00;;;;;;;39.70;21.40;;;;;;;-7.58;76.52;102313.36;104727;1285;73497;-79
2021/12/23 04:46:29;;;;;;;28.00;15.80;;;;;;;-7.58;76.10;102318.25;104790;1283;68323;-76
2021/12/23 04:48:58;;;;;;;32.20;14.80;;;;;;;-7.58;75.65;102318.27;104810;1284;72349;-75
2021/12/23 04:51:27;;;;;;;28.80;13.70;;;;;;;-7.58;75.88;102313.33;104543;1288;60800;-74
2021/12/23 04:53:56;;;;;;;32.30;16.50;;;;;;;-7.60;76.08;102312.45;104680;1285;59799;-75
2021/12/23 04:56:25;;;;;;;28.70;15.10;;;;;;;-7.62;75.97;102310.69;104790;1287;71854;-76
2021/12/23 04:58:54;;;;;;;28.90;13.30;;;;;;;-7.63;75.91;102309.99;104686;1288;70081;-74
2021/12/23 05:01:29;;;;;;;31.90;15.70;;;;;;;-7.66;76.28;102314.31;104758;1287;69801;-74
2021/12/23 05:03:59;;;;;;;38.10;17.60;;;;;;;-7.66;75.87;102311.92;104711;1287;71864;-73
2021/12/23 05:06:29;;;;;;;26.60;12.10;;;;;;;-7.68;75.51;102312.56;104819;1283;61796;-77
2021/12/23 05:08:58;;;;;;;31.80;14.90;;;;;;;-7.70;75.74;102311.65;104674;1283;60623;-76
2021/12/23 05:11:27;;;;;;;31.30;15.30;;;;;;;-7.69;77.58;102316.27;104722;1287;74571;-76
2021/12/23 05:13:56;;;;;;;35.90;17.60;;;;;;;-7.65;77.46;102312.66;104714;1287;72037;-74
2021/12/23 05:16:25;;;;;;;29.20;14.40;;;;;;;-7.58;77.15;102314.55;104818;1287;72084;-74
2021/12/23 05:18:54;;;;;;;11.10;7.10;;;;;;;-7.50;76.23;102309.51;104593;1286;73839;-76
2021/12/23 05:21:23;;;;;;;19.40;9.70;;;;;;;-7.38;75.98;102307.97;104831;1287;61782;-76
2021/12/23 05:23:52;;;;;;;31.60;13.40;;;;;;;-7.33;75.83;102304.71;104748;1286;59735;-74
2021/12/23 05:26:21;;;;;;;40.30;20.60;;;;;;;-7.30;76.30;102309.70;104713;1287;73632;-74
2021/12/23 05:28:50;;;;;;;38.90;18.70;;;;;;;-7.23;76.65;102306.35;104799;1283;73219;-76
2021/12/23 05:31:19;;;;;;;38.20;17.40;;;;;;;-7.10;76.87;102303.98;104803;1283;71099;-75
2021/12/23 05:33:48;;;;;;;28.80;15.20;;;;;;;-7.00;75.94;102300.84;104760;1283;71909;-77
2021/12/23 05:36:17;;;;;;;30.80;14.90;;;;;;;-6.97;75.50;102299.72;104624;1283;59680;-75
2021/12/23 05:38:46;;;;;;;37.60;18.50;;;;;;;-7.01;75.87;102297.41;104754;1283;59000;-75
2021/12/23 05:41:15;;;;;;;35.10;17.30;;;;;;;-7.01;76.61;102301.32;104779;1285;73175;-75
2021/12/23 05:43:44;;;;;;;35.00;16.10;;;;;;;-6.98;76.18;102299.17;104659;1288;70166;-75
2021/12/23 05:46:13;;;;;;;35.30;19.60;;;;;;;-7.00;76.49;102299.64;104680;1286;68157;-74
2021/12/23 05:48:42;;;;;;;36.10;17.40;;;;;;;-7.07;75.96;102299.11;104612;1285;72009;-76
2021/12/23 05:51:11;;;;;;;30.00;15.30;;;;;;;-7.12;74.95;102304.75;104759;1287;59797;-75
2021/12/23 05:53:40;;;;;;;35.30;15.80;;;;;;;-7.14;75.27;102315.73;104729;1285;59332;-75
2021/12/23 05:56:10;;;;;;;38.00;17.10;;;;;;;-7.20;75.18;102318.26;104672;1285;74165;-72
2021/12/23 05:58:40;;;;;;;33.40;17.30;;;;;;;-7.32;74.61;102328.94;104556;1286;70528;-75
2021/12/23 06:01:09;;;;;;;37.70;16.70;;;;;;;-7.53;74.70;102324.67;104853;1284;70643;-78
2021/12/23 06:03:40;;;;;;;27.00;14.30;;;;;;;-7.70;75.49;102324.02;104729;1285;73457;-76
2021/12/23 06:06:09;;;;;;;29.60;13.50;;;;;;;-7.82;76.26;102321.14;104953;1283;60905;-77
2021/12/23 06:08:41;;;;;;;39.40;17.60;;;;;;;-7.88;77.23;102326.05;104934;1284;59307;-80
2021/12/23 06:11:10;;;;;;;33.10;15.00;;;;;;;-7.85;77.84;102325.97;104637;1287;73801;-76
2021/12/23 06:13:39;;;;;;;29.10;15.10;;;;;;;-7.83;78.26;102323.82;104620;1286;71819;-75
2021/12/23 06:16:09;;;;;;;34.80;16.50;;;;;;;-7.85;77.90;102323.40;104573;1286;68194;-77
2021/12/23 06:18:38;;;;;;;43.40;18.30;;;;;;;-7.83;77.77;102323.13;104335;1289;75091;-76
2021/12/23 06:21:07;;;;;;;29.20;14.70;;;;;;;-7.80;77.40;102317.98;104503;1286;59610;-73
2021/12/23 06:23:36;;;;;;;28.40;13.50;;;;;;;-7.81;77.05;102321.52;104592;1286;60564;-85
2021/12/23 06:26:05;;;;;;;28.30;13.40;;;;;;;-7.87;76.57;102320.98;104611;1286;73139;-82
2021/12/23 06:28:34;;;;;;;47.90;19.20;;;;;;;-7.89;76.27;102321.60;104651;1283;71622;-82
2021/12/23 06:31:03;;;;;;;57.30;22.80;;;;;;;-7.89;76.22;102322.27;104587;1287;72456;-83
2021/12/23 06:33:33;;;;;;;37.50;18.80;;;;;;;-7.87;76.14;102318.29;104638;1287;73005;-83
2021/12/23 06:36:02;;;;;;;35.80;17.50;;;;;;;-7.85;76.29;102318.67;104311;1283;60563;-83
2021/12/23 06:38:32;;;;;;;282.80;94.10;;;;;;;-7.92;76.51;102319.16;104542;1285;61272;-84
2021/12/23 06:41:02;;;;;;;32.00;14.80;;;;;;;-7.89;76.00;102318.24;104448;1286;75528;-85
2021/12/23 06:43:31;;;;;;;31.10;16.10;;;;;;;-7.88;76.05;102317.58;104402;1286;72956;-83
2021/12/23 06:46:02;;;;;;;28.30;14.20;;;;;;;-7.89;76.06;102320.59;104565;1286;69167;-85
2021/12/23 06:48:32;;;;;;;28.80;14.40;;;;;;;-7.90;76.01;102321.21;104476;1285;72382;-85
2021/12/23 06:51:02;;;;;;;39.80;16.50;;;;;;;-7.91;75.57;102321.39;104735;1287;60038;-82
2021/12/23 06:53:31;;;;;;;42.80;20.40;;;;;;;-7.94;75.12;102317.73;104604;1284;60604;-82
2021/12/23 06:56:00;;;;;;;45.90;21.30;;;;;;;-7.96;75.16;102319.89;104673;1289;73113;-85
2021/12/23 06:58:32;;;;;;;21.30;9.10;;;;;;;-7.93;75.20;102317.27;104697;1287;72384;-85
2021/12/23 07:01:01;;;;;;;19.10;9.00;;;;;;;-7.87;75.04;102313.89;104590;1286;70976;-84
2021/12/23 07:04:01;;;;;;;20.80;9.60;;;;;;;-7.80;74.90;102313.60;104733;1285;72961;-83
2021/12/23 07:06:26;;;;;;;33.40;15.30;;;;;;;-7.68;75.02;102316.27;104678;1287;63959;-82
2021/12/23 07:08:55;;;;;;;21.10;11.50;;;;;;;-7.56;74.93;102321.70;105786;1287;59519;-84
2021/12/23 07:11:24;;;;;;;23.70;11.00;;;;;;;-7.38;74.70;102322.69;104443;1288;72969;-83
2021/12/23 07:13:53;;;;;;;22.50;11.80;;;;;;;-7.17;73.41;102321.23;104542;1286;70369;-87
2021/12/23 07:16:22;;;;;;;21.70;12.40;;;;;;;-6.99;72.99;102319.83;104737;1284;69948;-82
2021/12/23 07:18:52;;;;;;;25.90;13.40;;;;;;;-6.85;72.25;102313.40;104654;1286;74003;-84
2021/12/23 07:21:21;;;;;;;41.90;18.60;;;;;;;-6.73;71.89;102308.77;104995;1287;61132;-86
2021/12/23 07:23:50;;;;;;;42.40;21.00;;;;;;;-6.64;72.42;102310.01;104903;1287;59648;-85
2021/12/23 07:26:19;;;;;;;36.20;16.90;;;;;;;-6.70;72.14;102309.35;104942;1287;70774;-84
2021/12/23 07:28:48;;;;;;;40.50;18.40;;;;;;;-6.64;72.19;102308.99;104859;1284;71374;-85
2021/12/23 07:31:17;;;;;;;42.20;19.20;;;;;;;-6.70;72.02;102308.17;104707;1287;68140;-84
2021/12/23 07:33:46;;;;;;;44.50;21.60;;;;;;;-6.59;72.11;102309.44;104763;1285;71576;-74
2021/12/23 07:36:19;;;;;;;36.00;17.10;;;;;;;-6.57;72.22;102311.52;104646;1286;60567;-72
2021/12/23 07:38:47;;;;;;;45.40;19.30;;;;;;;-6.55;72.16;102314.61;104442;1288;61340;-75
2021/12/23 07:41:17;;;;;;;42.50;21.50;;;;;;;-6.50;72.39;102312.55;104507;1288;73676;-75
2021/12/23 07:43:58;;;;;;;30.60;15.00;;;;;;;-6.51;72.51;102315.25;104620;1284;70460;-78
2021/12/23 07:46:30;;;;;;;48.50;23.20;;;;;;;-6.56;73.28;102312.58;104521;1285;68762;-79
2021/12/23 07:49:00;;;;;;;25.40;11.50;;;;;;;-6.66;73.81;102313.70;104687;1287;72123;-74
2021/12/23 07:51:29;;;;;;;49.50;25.10;;;;;;;-6.69;74.34;102306.85;104568;1288;62026;-75
2021/12/23 07:53:58;;;;;;;42.50;22.10;;;;;;;-6.67;74.04;102311.98;104511;1287;59780;-79
2021/12/23 07:56:27;;;;;;;36.00;16.60;;;;;;;-6.57;73.61;102315.77;104600;1287;72920;-77
2021/12/23 07:58:56;;;;;;;33.70;14.40;;;;;;;-6.57;72.95;102311.86;104409;1286;70029;-77
2021/12/23 08:01:25;;;;;;;42.00;21.30;;;;;;;-6.69;72.64;102313.11;104231;1288;68809;-76
2021/12/23 08:03:54;;;;;;;32.60;15.50;;;;;;;-6.69;72.97;102313.80;104572;1287;73291;-80
2021/12/23 08:06:23;;;;;;;42.40;19.80;;;;;;;-6.60;72.92;102312.80;104776;1286;61805;-76
2021/12/23 08:08:52;;;;;;;31.50;14.20;;;;;;;-6.46;72.67;102313.30;104615;1288;60172;-76
2021/12/23 08:11:22;;;;;;;44.20;17.60;;;;;;;-6.38;72.37;102319.60;105145;1288;72975;-76
2021/12/23 08:13:51;;;;;;;44.90;22.00;;;;;;;-6.47;72.09;102315.65;104617;1288;72404;-77
2021/12/23 08:16:20;;;;;;;45.30;19.70;;;;;;;-6.48;72.16;102312.25;104791;1288;67684;-88
2021/12/23 08:18:49;;;;;;;56.20;23.70;;;;;;;-6.41;71.82;102318.17;104685;1288;72756;-88
2021/12/23 08:21:19;;;;;;;34.90;17.30;;;;;;;-6.34;72.04;102319.00;104579;1288;61375;-84
2021/12/23 08:23:48;;;;;;;44.50;19.70;;;;;;;-6.25;72.08;102314.64;104677;1286;63059;-88
2021/12/23 08:26:21;;;;;;;47.30;23.30;;;;;;;-6.16;71.92;102309.59;104719;1287;74907;-84
2021/12/23 08:28:50;;;;;;;38.40;19.10;;;;;;;-6.13;71.08;102310.15;104761;1288;70846;-81
2021/12/23 08:31:21;;;;;;;37.40;16.70;;;;;;;-6.03;71.44;102308.84;104887;1288;68808;-80
2021/12/23 08:33:51;;;;;;;41.70;19.80;;;;;;;-5.98;71.04;102309.98;104710;1288;74140;-81
2021/12/23 08:36:20;;;;;;;43.30;19.40;;;;;;;-6.05;71.20;102311.34;104588;1288;62183;-82
2021/12/23 08:38:49;;;;;;;47.20;24.10;;;;;;;-6.00;71.00;102309.23;104842;1288;61838;-82
2021/12/23 08:41:18;;;;;;;35.00;17.30;;;;;;;-5.95;72.05;102313.08;104828;1284;75506;-72
2021/12/23 08:43:48;;;;;;;46.80;22.60;;;;;;;-5.93;72.02;102314.98;104725;1288;69332;-84
2021/12/23 08:46:17;;;;;;;50.10;23.20;;;;;;;-5.81;71.47;102303.67;104823;1286;68825;-81
2021/12/23 08:48:46;;;;;;;31.30;16.50;;;;;;;-5.90;71.48;102302.65;104622;1288;72794;-79
2021/12/23 08:51:16;;;;;;;46.50;24.10;;;;;;;-5.91;71.31;102295.85;104752;1286;59718;-80
2021/12/23 08:53:45;;;;;;;47.50;22.10;;;;;;;-5.73;72.70;102290.25;104829;1284;60990;-81
2021/12/23 08:56:15;;;;;;;47.10;24.10;;;;;;;-5.72;70.53;102283.30;104780;1288;73603;-76
2021/12/23 08:58:44;;;;;;;47.40;22.20;;;;;;;-5.56;71.48;102278.17;104643;1287;70929;-82
2021/12/23 09:01:13;;;;;;;45.60;23.30;;;;;;;-5.38;70.73;102276.65;104765;1287;70213;-81
2021/12/23 09:03:43;;;;;;;46.40;23.00;;;;;;;-5.25;69.46;102273.84;104719;1289;74098;-81
2021/12/23 09:06:12;;;;;;;44.70;22.10;;;;;;;-5.26;68.65;102271.45;104980;1286;61152;-76
2021/12/23 09:08:41;;;;;;;41.60;22.30;;;;;;;-5.05;68.82;102259.56;104967;1286;61068;-85
2021/12/23 09:11:10;;;;;;;44.70;23.50;;;;;;;-4.86;68.53;102250.69;104836;1285;74060;-77
2021/12/23 09:13:39;;;;;;;45.10;22.60;;;;;;;-4.99;68.23;102246.23;104618;1286;72378;-76
2021/12/23 09:16:08;;;;;;;43.90;20.70;;;;;;;-4.91;68.11;102241.78;104800;1284;69934;-83
2021/12/23 09:18:37;;;;;;;53.90;22.60;;;;;;;-4.68;67.30;102238.20;104702;1286;73507;-81
2021/12/23 09:21:07;;;;;;;47.30;23.10;;;;;;;-4.57;67.08;102233.29;104599;1288;60216;-79
2021/12/23 09:23:56;;;;;;;47.30;22.20;;;;;;;-4.60;66.86;102227.11;104596;1287;61227;-78
2021/12/23 09:26:26;;;;;;;44.20;21.40;;;;;;;-4.46;66.85;102222.23;104623;1283;73053;-78
2021/12/23 09:34:12;;;;;;;52.30;24.80;;;;;;;-4.26;66.37;102215.16;104460;1288;71695;-74
2021/12/23 09:36:42;;;;;;;57.00;26.80;;;;;;;-4.21;66.45;102210.63;104484;1287;60928;-76
2021/12/23 09:39:12;;;;;;;46.50;24.70;;;;;;;-4.17;66.86;102204.39;104483;1288;60541;-76
2021/12/23 09:41:47;;;;;;;50.50;27.20;;;;;;;-4.30;66.49;102195.38;104510;1288;75690;-76
2021/12/23 09:44:16;;;;;;;49.00;24.80;;;;;;;-4.37;66.89;102186.27;104546;1288;70998;-75
2021/12/23 09:46:45;;;;;;;59.60;26.90;;;;;;;-4.25;66.57;102180.80;104576;1288;69973;-76
2021/12/23 09:49:15;;;;;;;48.10;25.20;;;;;;;-4.10;66.29;102172.48;104235;1288;70904;-76
2021/12/23 09:51:46;;;;;;;47.50;23.50;;;;;;;-4.09;64.92;102168.56;104441;1286;60198;-77
2021/12/23 09:54:19;;;;;;;46.30;21.50;;;;;;;-4.01;64.38;102166.79;104506;1288;60086;-77
2021/12/23 09:56:48;;;;;;;33.20;16.70;;;;;;;-3.84;63.93;102167.15;104544;1288;74680;-79
2021/12/23 09:59:18;;;;;;;23.00;11.20;;;;;;;-3.65;63.57;102160.85;104511;1285;70461;-79
2021/12/23 10:01:47;;;;;;;35.50;14.90;;;;;;;-3.49;61.75;102157.94;104523;1287;69915;-78
2021/12/23 10:04:16;;;;;;;16.70;7.30;;;;;;;-3.48;59.41;102153.69;104524;1285;72727;-82
2021/12/23 10:06:47;;;;;;;23.50;12.50;;;;;;;-3.43;59.76;102145.21;104548;1288;59559;-79
2021/12/23 10:09:37;;;;;;;22.30;10.90;;;;;;;-3.38;57.84;102143.89;104538;1288;60140;-80
2021/12/23 10:31:52;;;;;;;32.80;16.70;;;;;;;-3.15;57.50;102090.39;104624;1288;71370;-78
2021/12/23 10:37:21;;;;;;;34.50;17.00;;;;;;;-2.85;56.72;102082.03;104665;1288;72560;-74
2021/12/23 10:40:06;;;;;;;31.50;15.80;;;;;;;-2.77;56.66;102082.91;104704;1287;61809;-76
2021/12/23 10:42:35;;;;;;;28.10;14.80;;;;;;;-2.56;56.34;102083.69;104644;1287;60823;-81
2021/12/23 10:45:13;;;;;;;29.00;16.10;;;;;;;-2.41;55.73;102075.20;104568;1288;70816;-80
2021/12/23 10:48:05;;;;;;;30.20;15.40;;;;;;;-2.43;55.44;102072.47;104914;1288;70632;-78
2021/12/23 10:50:42;;;;;;;30.30;14.20;;;;;;;-2.27;54.99;102071.31;104643;1285;71006;-80
2021/12/23 10:59:24;;;;;;;28.00;15.80;;;;;;;-1.79;53.52;102054.30;104538;1286;59646;-78
2021/12/23 11:02:34;;;;;;;25.30;13.70;;;;;;;-1.68;53.61;102054.47;104820;1287;74519;-78
2021/12/23 11:05:16;;;;;;;28.30;13.40;;;;;;;-1.55;53.04;102052.23;104775;1287;72199;-81
2021/12/23 11:08:00;;;;;;;26.40;14.00;;;;;;;-1.22;53.78;102044.49;104675;1288;70539;-79
2021/12/23 11:11:01;;;;;;;;;;;;;;;-0.49;53.12;102032.07;105026;1288;73960;-80
2021/12/23 11:37:52;;;;;;;;;;;;;;;;;;;;;
2021/12/23 11:40:23;;;;;;;18.80;10.20;;;;;;;1.12;49.18;101994.61;105630;1287;72805;-78
2021/12/23 11:43:13;;;;;;;21.30;12.30;;;;;;;1.52;45.14;101987.20;104644;1288;71506;-79
2021/12/23 11:45:48;;;;;;;25.10;14.10;;;;;;;1.21;45.64;101983.15;104648;1288;74424;-76
2021/12/23 11:48:17;;;;;;;22.60;12.50;;;;;;;0.97;45.69;101980.37;104956;1286;59636;-77
2021/12/23 11:54:05;;;;;;;21.90;11.70;;;;;;;0.77;43.03;101970.67;104763;1285;72887;-77
2021/12/23 11:56:40;;;;;;;22.60;12.60;;;;;;;0.79;43.65;101969.10;104951;1286;71722;-77
2021/12/23 11:59:13;;;;;;;16.10;8.60;;;;;;;0.84;44.05;101962.88;104974;1284;69786;-75
2021/12/23 12:01:49;;;;;;;15.90;7.50;;;;;;;1.46;42.58;101955.02;104963;1285;73260;-77
2021/12/23 12:04:30;;;;;;;19.60;10.30;;;;;;;1.63;41.19;101951.14;104992;1282;60985;-77
2021/12/23 12:06:59;;;;;;;23.40;11.70;;;;;;;1.38;41.65;101942.77;104877;1282;61042;-76
2021/12/23 12:09:32;;;;;;;16.60;8.50;;;;;;;1.62;42.78;101942.23;104899;1284;72828;-74
2021/12/23 12:12:09;;;;;;;19.60;10.70;;;;;;;2.27;41.04;101938.39;104778;1283;69734;-78
2021/12/23 12:14:40;;;;;;;20.80;10.60;;;;;;;1.93;41.84;101942.95;104981;1285;71630;-71
2021/12/23 12:17:25;;;;;;;15.50;9.30;;;;;;;1.89;41.89;101942.15;104891;1285;71652;-80
2021/12/23 12:20:35;;;;;;;15.40;8.90;;;;;;;1.52;39.24;101941.36;104779;1283;60520;-77
2021/12/23 12:23:11;;;;;;;15.80;8.30;;;;;;;0.63;39.64;101940.66;105082;1282;61329;-73
2021/12/23 12:25:41;;;;;;;13.30;7.40;;;;;;;0.10;39.18;101942.07;105177;1282;72235;-78
2021/12/23 12:28:18;;;;;;;12.50;6.60;;;;;;;-0.37;39.93;101936.48;105489;1285;72025;-73
2021/12/23 12:30:53;;;;;;;16.90;9.10;;;;;;;-1.02;41.17;101935.69;105222;1282;70327;-74
2021/12/23 12:33:24;;;;;;;14.50;7.30;;;;;;;-1.20;41.98;101931.33;104814;1285;74470;-76
2021/12/23 12:36:06;;;;;;;15.70;7.70;;;;;;;-1.42;42.71;101935.52;104793;1284;59719;-78